Time;durP1;ratioP1;P1;durP2;ratioP2;P2;SDS_P1;SDS_P2;PMS_P1;PMS_P2;Temp;Humidity;BMP_temperature;BMP_pressure;BME280_temperature;BME280_humidity;BME280_pressure;Samples;Min_cycle;Max_cycle;Signal;HPM_P1;HPM_P2
2023/05/28 00:01:03;;;;;;;7.60;4.60;;;12.80;75.80;;;;;;5052003;28;20943;-74
2023/05/28 00:03:31;;;;;;;9.50;5.23;;;12.80;75.80;;;;;;5054059;28;20191;-74
2023/05/28 00:05:58;;;;;;;10.20;5.80;;;12.70;76.10;;;;;;5071820;28;20918;-74
2023/05/28 00:08:25;;;;;;;10.30;5.17;;;12.70;76.40;;;;;;5059161;28;20912;-74
2023/05/28 00:10:59;;;;;;;6.97;5.07;;;12.70;76.60;;;;;;5051555;28;20436;-74
2023/05/28 00:13:28;;;;;;;10.53;5.80;;;12.70;76.30;;;;;;5051616;28;20216;-75
2023/05/28 00:15:56;;;;;;;6.97;5.23;;;12.70;76.30;;;;;;5058235;28;20444;-74
2023/05/28 00:18:23;;;;;;;8.80;5.00;;;12.70;76.70;;;;;;5059696;28;20438;-74
2023/05/28 00:20:51;;;;;;;6.95;4.40;;;12.60;77.60;;;;;;5051982;28;20858;-74
2023/05/28 00:23:18;;;;;;;9.00;5.70;;;12.60;77.30;;;;;;5051927;28;20218;-73
2023/05/28 00:25:45;;;;;;;11.57;6.57;;;12.60;77.90;;;;;;5053276;28;20468;-74
2023/05/28 00:28:12;;;;;;;9.30;5.13;;;12.60;78.20;;;;;;5052575;28;20523;-73
2023/05/28 00:30:40;;;;;;;8.23;4.73;;;12.60;78.00;;;;;;5052990;28;20194;-74
2023/05/28 00:33:07;;;;;;;6.43;4.43;;;12.60;78.80;;;;;;5053081;28;20576;-74
2023/05/28 00:35:34;;;;;;;7.13;4.10;;;12.50;78.40;;;;;;5053010;28;20252;-74
2023/05/28 00:38:01;;;;;;;10.80;5.68;;;12.50;78.60;;;;;;5052810;28;20198;-74
2023/05/28 00:40:28;;;;;;;5.97;4.20;;;12.40;78.40;;;;;;5052952;28;20190;-74
2023/05/28 00:42:55;;;;;;;7.38;4.82;;;12.40;78.40;;;;;;5052965;28;20225;-74
2023/05/28 00:45:22;;;;;;;10.13;6.13;;;12.30;78.20;;;;;;5053162;28;20195;-74
2023/05/28 00:47:50;;;;;;;9.00;6.15;;;12.30;78.50;;;;;;5053007;28;20190;-73
2023/05/28 00:50:20;;;;;;;10.93;5.70;;;12.20;79.40;;;;;;5052830;28;20190;-73
2023/05/28 00:52:50;;;;;;;16.92;6.60;;;12.20;79.30;;;;;;5056938;28;20249;-74
2023/05/28 00:55:18;;;;;;;9.55;6.55;;;12.20;79.20;;;;;;5056894;28;20320;-74
2023/05/28 00:57:47;;;;;;;8.68;5.72;;;12.10;79.50;;;;;;5056486;28;20186;-73
2023/05/28 01:00:15;;;;;;;11.43;5.80;;;12.10;80.20;;;;;;5056582;28;20225;-73
2023/05/28 01:02:43;;;;;;;11.30;4.95;;;12.10;80.70;;;;;;5056502;28;20720;-74
2023/05/28 01:05:11;;;;;;;7.88;4.97;;;12.10;81.10;;;;;;5056858;28;20198;-74
2023/05/28 01:07:38;;;;;;;7.90;4.65;;;12.00;80.70;;;;;;5056596;28;20186;-74
2023/05/28 01:10:07;;;;;;;8.93;6.47;;;12.00;80.70;;;;;;5056149;28;20240;-74
2023/05/28 01:12:36;;;;;;;11.05;6.30;;;12.00;81.00;;;;;;5055654;28;20222;-74
2023/05/28 01:15:03;;;;;;;9.80;6.47;;;11.90;81.40;;;;;;5056454;28;20526;-74
2023/05/28 01:17:31;;;;;;;9.70;5.18;;;11.90;81.70;;;;;;5055979;28;20257;-74
2023/05/28 01:20:02;;;;;;;8.80;5.45;;;11.90;81.50;;;;;;5056312;28;20229;-74
2023/05/28 01:22:37;;;;;;;7.43;4.90;;;11.90;82.20;;;;;;5056075;28;20197;-74
2023/05/28 01:25:09;;;;;;;9.82;6.13;;;11.90;82.30;;;;;;5056275;28;20587;-73
2023/05/28 01:27:38;;;;;;;8.68;5.10;;;11.90;82.40;;;;;;5056155;28;20194;-73
2023/05/28 01:30:09;;;;;;;8.95;5.97;;;11.90;82.50;;;;;;5056103;28;20229;-73
2023/05/28 01:32:36;;;;;;;10.23;6.22;;;11.80;83.00;;;;;;5055726;28;20228;-73
2023/05/28 01:35:04;;;;;;;6.95;4.82;;;11.80;83.00;;;;;;5055622;28;20200;-73
2023/05/28 01:37:33;;;;;;;8.50;4.50;;;11.80;83.00;;;;;;5055806;28;20193;-73
2023/05/28 01:40:02;;;;;;;10.00;5.35;;;11.80;83.20;;;;;;5055813;28;20233;-74
2023/05/28 01:42:32;;;;;;;6.10;5.22;;;11.90;83.00;;;;;;5055819;28;20190;-74
2023/05/28 01:45:00;;;;;;;6.43;5.57;;;11.80;82.60;;;;;;5055482;28;20632;-74
2023/05/28 01:47:28;;;;;;;7.72;5.20;;;11.80;82.20;;;;;;5055705;28;20632;-73
2023/05/28 01:49:55;;;;;;;7.38;5.25;;;11.80;82.20;;;;;;5055192;28;20281;-73
2023/05/28 01:52:22;;;;;;;8.75;4.78;;;11.80;82.50;;;;;;5055425;28;20215;-74
2023/05/28 01:54:49;;;;;;;7.68;5.63;;;11.70;82.40;;;;;;5055458;28;20593;-74
2023/05/28 01:57:16;;;;;;;7.95;5.22;;;11.70;82.30;;;;;;5055247;28;20221;-73
2023/05/28 01:59:44;;;;;;;9.25;5.45;;;11.60;82.20;;;;;;5055209;28;20248;-73
2023/05/28 02:02:11;;;;;;;7.47;5.25;;;11.60;82.20;;;;;;5054021;28;20672;-74
2023/05/28 02:04:38;;;;;;;6.75;4.30;;;11.60;82.60;;;;;;5055270;28;20222;-74
2023/05/28 02:07:06;;;;;;;7.68;4.93;;;11.60;82.60;;;;;;5055353;28;20295;-73
2023/05/28 02:09:33;;;;;;;8.27;4.68;;;11.60;82.70;;;;;;5055117;28;20289;-73
2023/05/28 02:12:02;;;;;;;10.77;6.30;;;11.50;83.00;;;;;;5055085;28;20305;-73
2023/05/28 02:14:29;;;;;;;7.68;5.40;;;11.50;83.20;;;;;;5054684;28;20646;-74
2023/05/28 02:16:58;;;;;;;11.95;6.07;;;11.50;83.60;;;;;;5054717;28;20622;-73
2023/05/28 02:19:25;;;;;;;6.70;5.20;;;11.40;83.70;;;;;;5055010;28;20717;-73
2023/05/28 02:21:53;;;;;;;10.00;5.68;;;11.40;84.30;;;;;;5054941;28;20186;-73
2023/05/28 02:24:20;;;;;;;8.82;4.50;;;11.30;84.40;;;;;;5055108;28;20190;-73
2023/05/28 02:26:47;;;;;;;10.90;6.13;;;11.30;84.50;;;;;;5054868;28;20191;-73
2023/05/28 02:29:14;;;;;;;7.95;4.88;;;11.30;84.80;;;;;;5054319;28;20672;-73
2023/05/28 02:31:42;;;;;;;11.10;5.47;;;11.30;84.80;;;;;;5054773;28;20194;-73
2023/05/28 02:34:10;;;;;;;7.60;5.57;;;11.30;85.40;;;;;;5055162;28;20233;-74
2023/05/28 02:36:37;;;;;;;8.68;4.82;;;11.20;84.80;;;;;;5055033;28;20489;-74
2023/05/28 02:39:04;;;;;;;8.68;5.35;;;11.20;85.00;;;;;;5055072;28;20194;-74
2023/05/28 02:41:31;;;;;;;7.93;5.20;;;11.20;85.80;;;;;;5054918;28;20199;-74
2023/05/28 02:43:58;;;;;;;10.48;6.78;;;11.10;85.10;;;;;;5054718;28;20190;-74
2023/05/28 02:46:25;;;;;;;9.18;5.90;;;11.10;85.60;;;;;;5054492;28;20229;-73
2023/05/28 02:48:52;;;;;;;12.95;7.15;;;11.10;85.90;;;;;;5054791;28;20233;-73
2023/05/28 02:51:20;;;;;;;12.73;6.45;;;11.00;86.40;;;;;;5054605;28;20225;-73
2023/05/28 02:53:47;;;;;;;11.93;6.22;;;11.00;86.30;;;;;;5054451;28;20238;-73
2023/05/28 02:56:14;;;;;;;12.90;6.13;;;11.00;86.20;;;;;;5054805;28;20194;-73
2023/05/28 02:58:41;;;;;;;8.32;5.40;;;10.90;86.30;;;;;;5054032;28;20285;-73
2023/05/28 03:01:08;;;;;;;14.93;6.55;;;10.90;86.40;;;;;;5054363;28;20598;-74
2023/05/28 03:03:35;;;;;;;7.60;5.75;;;10.90;86.70;;;;;;5054065;28;20245;-73
2023/05/28 03:06:08;;;;;;;8.65;5.60;;;10.80;87.00;;;;;;5054171;28;20241;-74
2023/05/28 03:08:36;;;;;;;9.20;5.40;;;10.80;87.00;;;;;;5054311;28;20197;-73
2023/05/28 03:11:03;;;;;;;9.95;6.75;;;10.70;86.80;;;;;;5054389;28;20186;-74
2023/05/28 03:13:30;;;;;;;14.23;6.05;;;10.70;87.40;;;;;;5053820;28;20254;-73
2023/05/28 03:15:58;;;;;;;8.50;6.07;;;10.70;87.70;;;;;;5054147;28;20256;-73
2023/05/28 03:18:25;;;;;;;12.05;6.65;;;10.60;88.40;;;;;;5053912;28;20198;-73
2023/05/28 03:20:53;;;;;;;9.25;6.10;;;10.70;88.90;;;;;;5053956;28;20194;-73
2023/05/28 03:23:20;;;;;;;8.05;6.10;;;10.70;89.20;;;;;;5053595;28;20530;-74
2023/05/28 03:25:48;;;;;;;8.82;6.30;;;10.70;89.20;;;;;;5053906;28;20195;-73
2023/05/28 03:28:15;;;;;;;8.10;6.32;;;10.70;89.40;;;;;;5053667;28;20592;-74
2023/05/28 03:30:43;;;;;;;11.75;6.78;;;10.70;89.30;;;;;;5053872;28;20279;-73
2023/05/28 03:33:10;;;;;;;8.88;5.93;;;10.70;89.20;;;;;;5053346;28;20221;-73
2023/05/28 03:35:36;;;;;;;11.55;6.10;;;10.60;89.70;;;;;;5053401;28;20182;-73
2023/05/28 03:38:03;;;;;;;9.73;5.60;;;10.60;90.00;;;;;;5053664;28;20304;-74
2023/05/28 03:40:30;;;;;;;10.48;6.40;;;10.60;90.00;;;;;;5053504;28;20209;-73
2023/05/28 03:42:59;;;;;;;9.65;6.45;;;10.60;90.10;;;;;;5053538;28;20198;-74
2023/05/28 03:45:26;;;;;;;9.90;5.88;;;10.70;90.10;;;;;;5053503;28;20222;-73
2023/05/28 03:47:52;;;;;;;8.98;5.43;;;10.70;90.30;;;;;;5053540;28;20237;-73
2023/05/28 03:50:20;;;;;;;7.45;5.32;;;10.70;90.60;;;;;;5053502;28;20281;-72
2023/05/28 03:52:46;;;;;;;10.82;6.20;;;10.70;90.70;;;;;;5053183;28;20242;-74
2023/05/28 03:55:13;;;;;;;7.97;5.38;;;10.80;90.40;;;;;;5053356;28;20709;-73
2023/05/28 03:57:40;;;;;;;6.93;5.40;;;10.70;90.30;;;;;;5052782;28;20693;-72
2023/05/28 04:00:10;;;;;;;10.77;6.28;;;10.70;90.40;;;;;;5053558;28;20200;-73
2023/05/28 04:02:37;;;;;;;8.45;5.20;;;10.70;90.20;;;;;;5053388;28;20648;-73
2023/05/28 04:05:05;;;;;;;9.90;6.07;;;10.70;90.10;;;;;;5052948;28;20313;-73
2023/05/28 04:07:32;;;;;;;7.45;5.53;;;10.70;90.30;;;;;;5052989;28;20376;-72
2023/05/28 04:09:59;;;;;;;8.88;6.13;;;10.70;90.40;;;;;;5052985;28;20605;-73
2023/05/28 04:12:26;;;;;;;8.65;6.22;;;10.70;90.40;;;;;;5052878;28;20218;-72
2023/05/28 04:14:53;;;;;;;9.20;5.80;;;10.70;90.60;;;;;;5052991;28;20226;-73
2023/05/28 04:17:21;;;;;;;9.73;6.53;;;10.60;90.90;;;;;;5052562;28;20218;-73
2023/05/28 04:19:48;;;;;;;9.55;6.85;;;10.70;91.00;;;;;;5053012;28;20222;-72
2023/05/28 04:22:15;;;;;;;8.98;5.95;;;10.70;91.10;;;;;;5053008;28;20248;-73
2023/05/28 04:24:42;;;;;;;14.10;7.63;;;10.70;91.30;;;;;;5053106;28;20221;-73
2023/05/28 04:27:09;;;;;;;8.80;6.60;;;10.80;91.30;;;;;;5052824;28;20226;-74
2023/05/28 04:29:36;;;;;;;8.88;6.47;;;10.80;91.10;;;;;;5052897;28;20238;-74
2023/05/28 04:32:04;;;;;;;11.10;5.70;;;10.90;91.30;;;;;;5053112;28;20190;-74
2023/05/28 04:34:33;;;;;;;8.48;5.68;;;11.00;91.40;;;;;;5053017;28;20295;-74
2023/05/28 04:37:00;;;;;;;7.80;5.93;;;11.00;91.30;;;;;;5053041;28;20259;-74
2023/05/28 04:39:27;;;;;;;13.95;6.63;;;11.00;91.50;;;;;;5053019;28;20222;-73
2023/05/28 04:41:54;;;;;;;12.88;6.75;;;11.10;91.80;;;;;;5052761;28;20196;-73
2023/05/28 04:44:25;;;;;;;8.75;6.20;;;11.20;91.80;;;;;;5052395;28;20664;-74
2023/05/28 04:46:52;;;;;;;9.40;5.43;;;11.30;91.70;;;;;;5052650;28;20194;-74
2023/05/28 04:49:19;;;;;;;7.47;6.22;;;11.30;91.50;;;;;;5052872;28;20221;-72
2023/05/28 04:51:47;;;;;;;7.30;5.57;;;11.40;91.80;;;;;;5052884;28;20277;-73
2023/05/28 04:54:14;;;;;;;8.57;5.90;;;11.60;92.00;;;;;;5052908;28;20218;-73
2023/05/28 04:56:41;;;;;;;8.82;4.93;;;11.60;91.60;;;;;;5052657;28;20244;-71
2023/05/28 04:59:09;;;;;;;12.98;6.57;;;11.70;91.70;;;;;;5052273;28;20230;-73
2023/05/28 05:01:36;;;;;;;7.85;5.57;;;11.80;91.50;;;;;;5053108;28;20232;-73
2023/05/28 05:04:03;;;;;;;10.23;7.22;;;12.00;91.30;;;;;;5052751;28;20195;-73
2023/05/28 05:06:30;;;;;;;9.48;5.97;;;12.00;91.00;;;;;;5052933;28;20195;-73
2023/05/28 05:08:58;;;;;;;12.00;5.95;;;12.10;91.00;;;;;;5052930;28;20233;-73
2023/05/28 05:11:26;;;;;;;13.23;6.40;;;12.20;90.70;;;;;;5053640;28;20233;-74
2023/05/28 05:13:53;;;;;;;8.68;5.60;;;12.20;90.30;;;;;;5053362;28;20226;-74
2023/05/28 05:16:20;;;;;;;11.52;6.30;;;12.30;90.40;;;;;;5052871;28;20222;-73
2023/05/28 05:18:48;;;;;;;11.73;6.00;;;12.40;90.70;;;;;;5053368;28;20226;-73
2023/05/28 05:21:15;;;;;;;10.48;6.43;;;12.50;90.60;;;;;;5053693;28;20195;-73
2023/05/28 05:23:42;;;;;;;10.83;6.30;;;12.60;90.70;;;;;;5052864;28;20226;-72
2023/05/28 05:26:12;;;;;;;7.30;5.67;;;12.70;90.90;;;;;;5052619;28;20468;-74
2023/05/28 05:28:39;;;;;;;18.70;6.50;;;12.80;90.60;;;;;;5053057;28;20496;-74
2023/05/28 05:31:06;;;;;;;8.43;6.03;;;12.90;90.20;;;;;;5052817;28;20544;-73
2023/05/28 05:33:33;;;;;;;10.20;6.00;;;13.00;90.20;;;;;;5052216;28;20507;-73
2023/05/28 05:36:01;;;;;;;12.27;6.90;;;13.10;90.40;;;;;;5052033;28;20523;-74
2023/05/28 05:38:28;;;;;;;11.73;6.53;;;13.30;90.30;;;;;;5054194;28;20502;-74
2023/05/28 05:40:55;;;;;;;11.97;5.97;;;13.40;90.00;;;;;;5056249;28;20851;-74
2023/05/28 05:43:23;;;;;;;8.20;5.50;;;13.50;90.00;;;;;;5056279;28;20487;-74
2023/05/28 05:45:50;;;;;;;10.70;7.20;;;13.70;90.00;;;;;;5056293;28;20444;-73
2023/05/28 05:48:17;;;;;;;11.70;6.83;;;13.80;89.40;;;;;;5056072;28;20783;-73
2023/05/28 05:50:51;;;;;;;9.50;5.37;;;13.90;89.40;;;;;;5055822;28;20473;-73
2023/05/28 05:53:18;;;;;;;14.50;7.37;;;14.00;88.80;;;;;;5055842;28;20483;-74
2023/05/28 05:55:45;;;;;;;7.60;5.73;;;14.10;88.40;;;;;;5055993;28;20471;-73
2023/05/28 05:58:13;;;;;;;9.53;5.50;;;14.30;89.10;;;;;;5055507;28;20516;-73
2023/05/28 06:00:42;;;;;;;9.90;5.20;;;14.40;89.20;;;;;;5056229;28;20449;-73
2023/05/28 06:03:09;;;;;;;14.73;6.97;;;14.50;89.00;;;;;;5055342;28;20441;-74
2023/05/28 06:05:36;;;;;;;9.20;5.93;;;14.70;87.50;;;;;;5056011;28;20447;-73
2023/05/28 06:08:04;;;;;;;9.77;5.87;;;14.80;86.50;;;;;;5055720;28;20436;-73
2023/05/28 06:10:30;;;;;;;11.00;5.77;;;14.90;85.70;;;;;;5056229;28;20436;-73
2023/05/28 06:13:00;;;;;;;9.80;6.33;;;15.00;83.60;;;;;;5056438;28;20713;-74
2023/05/28 06:15:27;;;;;;;17.73;7.53;;;15.20;83.00;;;;;;5056162;28;20445;-74
2023/05/28 06:17:56;;;;;;;8.73;5.43;;;15.20;83.00;;;;;;5056177;28;20500;-74
2023/05/28 06:20:23;;;;;;;11.87;5.97;;;15.40;83.10;;;;;;5057718;28;20974;-74
2023/05/28 06:22:50;;;;;;;9.03;6.43;;;15.50;82.20;;;;;;5056909;28;20859;-75
2023/05/28 06:25:18;;;;;;;8.03;5.93;;;15.60;80.60;;;;;;5056321;28;20485;-73
2023/05/28 06:27:45;;;;;;;12.97;6.30;;;15.70;80.30;;;;;;5065344;28;20464;-73
2023/05/28 06:30:12;;;;;;;9.07;5.67;;;15.80;79.70;;;;;;5069936;28;20465;-73
2023/05/28 06:32:39;;;;;;;9.57;5.43;;;16.00;79.90;;;;;;5057760;28;20424;-73
2023/05/28 06:35:09;;;;;;;10.47;5.40;;;16.10;78.50;;;;;;5071152;28;20838;-73
2023/05/28 06:37:36;;;;;;;6.73;4.80;;;16.20;78.10;;;;;;5071653;28;20490;-73
2023/05/28 06:40:06;;;;;;;11.87;5.23;;;16.30;78.50;;;;;;5069994;28;20435;-73
2023/05/28 06:42:33;;;;;;;9.30;6.00;;;16.40;77.90;;;;;;5063059;28;20555;-73
2023/05/28 06:45:00;;;;;;;10.80;5.80;;;16.50;77.40;;;;;;5071333;28;20451;-72
2023/05/28 06:47:27;;;;;;;8.70;5.10;;;16.60;77.70;;;;;;5070770;28;20436;-72
2023/05/28 06:49:54;;;;;;;12.03;6.47;;;16.70;77.80;;;;;;5070026;28;20535;-73
2023/05/28 06:52:23;;;;;;;9.27;5.97;;;16.90;77.00;;;;;;5067226;28;21016;-72
2023/05/28 06:54:50;;;;;;;12.23;6.33;;;17.00;77.10;;;;;;5069801;28;20515;-74
2023/05/28 06:57:19;;;;;;;9.17;6.57;;;17.20;76.50;;;;;;5065821;28;20485;-75
2023/05/28 06:59:46;;;;;;;7.70;5.13;;;17.30;76.50;;;;;;5054695;28;20452;-73
2023/05/28 07:02:14;;;;;;;7.90;5.50;;;17.40;76.30;;;;;;5053773;28;20444;-74
2023/05/28 07:04:43;;;;;;;11.27;7.50;;;17.60;76.70;;;;;;5052999;28;20926;-73
2023/05/28 07:07:10;;;;;;;10.03;5.57;;;17.70;75.70;;;;;;5058411;28;20432;-74
2023/05/28 07:09:38;;;;;;;10.33;6.40;;;17.90;74.80;;;;;;5070890;28;20533;-74
2023/05/28 07:12:06;;;;;;;6.97;5.70;;;18.00;75.60;;;;;;5069622;28;20466;-74
2023/05/28 07:14:34;;;;;;;9.23;5.43;;;18.20;75.60;;;;;;5070330;28;20479;-73
2023/05/28 07:17:01;;;;;;;8.17;5.63;;;18.40;74.00;;;;;;5063832;28;20495;-74
2023/05/28 07:19:28;;;;;;;11.50;5.53;;;18.60;72.60;;;;;;5053955;28;20433;-74
2023/05/28 07:21:55;;;;;;;11.53;5.37;;;18.60;72.20;;;;;;5058449;28;20827;-74
2023/05/28 07:24:22;;;;;;;9.50;5.33;;;18.80;71.90;;;;;;5054558;28;20449;-74
2023/05/28 07:26:51;;;;;;;10.37;6.17;;;18.90;71.30;;;;;;5064298;28;20445;-75
2023/05/28 07:29:18;;;;;;;12.50;5.50;;;19.00;69.90;;;;;;5052549;28;20467;-72
2023/05/28 07:31:45;;;;;;;7.60;5.50;;;19.10;67.10;;;;;;5064188;28;20440;-74
2023/05/28 07:34:12;;;;;;;9.97;5.70;;;19.10;68.30;;;;;;5057148;28;20488;-75
2023/05/28 07:36:39;;;;;;;9.50;6.33;;;19.20;67.50;;;;;;5064848;28;20506;-75
2023/05/28 07:39:13;;;;;;;14.77;5.60;;;19.40;66.80;;;;;;5063602;28;20441;-75
2023/05/28 07:41:40;;;;;;;10.03;5.93;;;19.40;65.00;;;;;;5054850;28;20536;-75
2023/05/28 07:44:09;;;;;;;11.13;6.17;;;19.50;66.40;;;;;;5070413;28;20789;-74
2023/05/28 07:46:37;;;;;;;9.17;6.47;;;19.70;67.20;;;;;;5068845;28;20444;-78
2023/05/28 07:49:04;;;;;;;9.07;5.43;;;19.80;67.20;;;;;;5070092;28;20980;-72
2023/05/28 07:51:32;;;;;;;9.33;5.17;;;20.00;67.10;;;;;;5070242;28;20443;-73
2023/05/28 07:53:59;;;;;;;12.43;5.87;;;20.10;65.70;;;;;;5068632;28;20936;-76
2023/05/28 07:56:26;;;;;;;10.67;5.33;;;20.30;67.60;;;;;;5070444;28;20436;-76
2023/05/28 07:58:53;;;;;;;12.17;5.07;;;20.50;65.90;;;;;;5069256;28;20436;-76
2023/05/28 08:01:21;;;;;;;10.57;5.87;;;20.60;66.20;;;;;;5071513;28;20428;-75
2023/05/28 08:03:51;;;;;;;8.97;5.83;;;20.70;64.40;;;;;;5073709;28;20440;-76
2023/05/28 08:06:17;;;;;;;8.10;5.40;;;20.80;62.00;;;;;;5073505;28;20444;-76
2023/05/28 08:08:44;;;;;;;11.10;6.00;;;21.00;63.20;;;;;;5073238;28;20508;-75
2023/05/28 08:11:13;;;;;;;7.60;5.20;;;21.20;64.00;;;;;;5057550;28;20514;-76
2023/05/28 08:13:40;;;;;;;9.70;4.97;;;21.30;62.30;;;;;;5071016;28;20444;-76
2023/05/28 08:16:11;;;;;;;7.97;5.23;;;21.50;61.20;;;;;;5061750;28;20432;-76
2023/05/28 08:18:39;;;;;;;11.13;5.40;;;21.70;59.10;;;;;;5052139;28;20452;-76
2023/05/28 08:21:07;;;;;;;8.83;5.00;;;21.80;58.60;;;;;;5050339;28;20435;-75
2023/05/28 08:23:34;;;;;;;12.17;5.40;;;21.90;58.90;;;;;;5051343;28;20444;-73
2023/05/28 08:26:04;;;;;;;13.70;5.30;;;22.00;58.00;;;;;;5051441;28;20440;-76
2023/05/28 08:28:32;;;;;;;7.93;4.27;;;22.20;57.90;;;;;;5051470;28;20445;-73
2023/05/28 08:30:59;;;;;;;7.53;4.57;;;22.30;58.10;;;;;;5058052;28;20927;-76
2023/05/28 08:33:26;;;;;;;11.30;4.90;;;22.50;58.30;;;;;;5071268;28;20447;-73
2023/05/28 08:35:56;;;;;;;9.37;4.70;;;22.60;56.30;;;;;;5064694;28;20832;-76
2023/05/28 08:38:23;;;;;;;13.00;6.33;;;22.70;56.40;;;;;;5052110;28;20486;-76
2023/05/28 08:40:54;;;;;;;10.00;4.63;;;22.80;57.10;;;;;;5050946;28;20440;-75
2023/05/28 08:43:22;;;;;;;9.47;5.07;;;23.00;56.70;;;;;;5050709;28;20429;-74
2023/05/28 08:45:51;;;;;;;8.40;4.50;;;23.10;54.70;;;;;;5051518;28;20448;-75
2023/05/28 08:48:19;;;;;;;9.37;4.83;;;23.20;53.70;;;;;;5051071;28;20912;-75
2023/05/28 08:50:51;;;;;;;14.30;5.07;;;23.30;53.70;;;;;;5051246;28;20436;-72
2023/05/28 08:53:22;;;;;;;10.47;4.00;;;23.40;54.20;;;;;;5050424;28;20939;-75
2023/05/28 08:55:50;;;;;;;11.27;4.30;;;23.60;53.00;;;;;;5051482;28;20985;-73
2023/05/28 08:58:18;;;;;;;7.53;3.70;;;23.70;51.40;;;;;;5051246;28;20437;-75
2023/05/28 09:00:45;;;;;;;7.40;4.23;;;23.80;49.70;;;;;;5051789;28;20760;-74
2023/05/28 09:03:12;;;;;;;8.73;4.33;;;23.90;49.20;;;;;;5051961;28;20927;-75
2023/05/28 09:05:45;;;;;;;11.13;3.40;;;24.00;50.10;;;;;;5051876;28;20440;-73
2023/05/28 09:08:13;;;;;;;10.33;4.80;;;24.10;50.50;;;;;;5051661;28;20833;-75
2023/05/28 09:10:42;;;;;;;8.80;4.80;;;24.10;47.90;;;;;;5051194;28;20424;-76
2023/05/28 09:13:09;;;;;;;9.60;4.60;;;24.20;47.70;;;;;;5054756;28;20476;-75
2023/05/28 09:15:37;;;;;;;7.90;4.07;;;24.30;47.90;;;;;;5055319;28;20566;-76
2023/05/28 09:18:06;;;;;;;10.13;3.60;;;24.30;47.50;;;;;;5054943;28;20476;-76
2023/05/28 09:20:33;;;;;;;8.20;3.73;;;24.40;48.60;;;;;;5055316;28;20552;-76
2023/05/28 09:23:02;;;;;;;11.00;3.97;;;24.50;48.60;;;;;;5055374;28;20469;-75
2023/05/28 09:25:32;;;;;;;9.40;3.90;;;24.60;47.60;;;;;;5055575;28;20783;-75
2023/05/28 09:28:01;;;;;;;11.13;3.90;;;24.60;47.50;;;;;;5055126;28;20452;-75
2023/05/28 09:30:29;;;;;;;12.40;5.30;;;24.80;46.70;;;;;;5055237;28;20433;-76
2023/05/28 09:33:02;;;;;;;14.53;4.40;;;24.90;47.00;;;;;;5075134;28;20440;-76
2023/05/28 09:35:30;;;;;;;7.33;3.90;;;24.90;46.80;;;;;;5075032;28;20571;-76
2023/05/28 09:38:01;;;;;;;9.07;3.67;;;24.90;44.60;;;;;;5054503;28;20512;-76
2023/05/28 09:40:31;;;;;;;10.47;4.57;;;25.00;46.20;;;;;;5054616;28;20931;-76
2023/05/28 09:43:05;;;;;;;8.60;3.80;;;25.10;46.30;;;;;;5054955;28;20437;-76
2023/05/28 09:45:35;;;;;;;11.37;4.63;;;25.20;46.80;;;;;;5055005;28;20441;-74
2023/05/28 09:48:02;;;;;;;12.70;4.60;;;25.20;46.40;;;;;;5054911;28;20443;-75
2023/05/28 09:50:30;;;;;;;10.03;4.17;;;25.30;45.50;;;;;;5054799;28;20436;-75
2023/05/28 09:52:58;;;;;;;12.10;4.67;;;25.40;46.90;;;;;;5054615;28;20556;-75
2023/05/28 09:55:27;;;;;;;8.70;4.00;;;25.50;45.60;;;;;;5054628;28;20523;-75
2023/05/28 09:58:01;;;;;;;9.40;4.70;;;25.60;44.60;;;;;;5054614;28;20437;-75
2023/05/28 10:00:33;;;;;;;6.53;3.80;;;25.70;46.00;;;;;;5054522;28;20441;-75
2023/05/28 10:03:21;;;;;;;6.87;3.40;;;25.80;43.80;;;;;;5054805;28;20429;-76
2023/05/28 10:05:53;;;;;;;7.47;3.63;;;25.80;42.90;;;;;;5054936;28;20463;-75
2023/05/28 10:08:24;;;;;;;8.80;3.90;;;25.80;45.00;;;;;;5054705;28;20469;-75
2023/05/28 10:10:54;;;;;;;7.07;4.10;;;25.90;42.00;;;;;;5054089;28;20477;-74
2023/05/28 10:13:23;;;;;;;7.10;4.33;;;25.90;42.90;;;;;;5053836;28;20437;-74
2023/05/28 10:15:50;;;;;;;5.93;3.67;;;25.90;43.10;;;;;;5053579;28;20484;-74
2023/05/28 10:18:19;;;;;;;6.93;3.90;;;26.10;44.50;;;;;;5054153;28;20464;-74
2023/05/28 10:20:51;;;;;;;10.67;4.00;;;26.10;41.90;;;;;;5054837;28;20443;-73
2023/05/28 10:23:20;;;;;;;9.13;3.80;;;26.10;42.40;;;;;;5053512;28;20448;-74
2023/05/28 10:25:48;;;;;;;6.07;3.73;;;26.20;42.30;;;;;;5054525;28;20455;-74
2023/05/28 10:28:16;;;;;;;5.33;3.10;;;26.40;41.60;;;;;;5073889;28;20471;-74
2023/05/28 10:30:45;;;;;;;6.03;3.23;;;26.50;42.70;;;;;;5074455;28;20548;-74
2023/05/28 10:33:17;;;;;;;6.67;3.57;;;26.60;41.60;;;;;;5074899;28;20443;-74
2023/05/28 10:35:53;;;;;;;6.50;2.83;;;26.60;40.40;;;;;;5074661;28;20476;-74
2023/05/28 10:38:22;;;;;;;12.73;4.50;;;26.70;41.60;;;;;;5070735;28;20440;-74
2023/05/28 10:40:49;;;;;;;7.90;3.80;;;26.70;41.00;;;;;;5074271;28;20436;-75
2023/05/28 10:43:44;;;;;;;8.17;4.67;;;26.80;41.10;;;;;;5054829;28;20464;-75
2023/05/28 10:46:13;;;;;;;5.93;3.20;;;26.90;41.30;;;;;;5053706;28;20983;-75
2023/05/28 10:48:42;;;;;;;9.47;3.63;;;27.10;41.10;;;;;;5053906;28;20476;-75
2023/05/28 10:51:13;;;;;;;8.93;3.63;;;27.10;39.00;;;;;;5054693;28;20490;-76
2023/05/28 10:53:40;;;;;;;9.37;3.60;;;27.20;38.00;;;;;;5053752;28;20537;-74
2023/05/28 10:56:11;;;;;;;8.07;4.37;;;27.20;38.80;;;;;;5054345;28;20477;-75
2023/05/28 10:58:39;;;;;;;7.70;4.00;;;27.30;39.10;;;;;;5054478;28;20464;-77
2023/05/28 11:01:19;;;;;;;5.53;4.03;;;27.30;36.40;;;;;;5054006;28;20993;-75
2023/05/28 11:03:54;;;;;;;6.30;3.40;;;27.30;37.70;;;;;;5054529;28;20465;-75
2023/05/28 11:06:22;;;;;;;10.77;4.27;;;27.30;37.20;;;;;;5053898;28;20432;-75
2023/05/28 11:08:50;;;;;;;10.20;4.33;;;27.30;37.60;;;;;;5066003;28;20436;-75
2023/05/28 11:11:20;;;;;;;8.83;4.10;;;27.20;35.60;;;;;;5073443;28;20535;-75
2023/05/28 11:13:48;;;;;;;6.07;3.83;;;27.20;37.00;;;;;;5073141;28;20435;-74
2023/05/28 11:16:17;;;;;;;10.47;5.03;;;27.30;37.40;;;;;;5053005;28;20741;-74
2023/05/28 11:19:03;;;;;;;7.10;3.50;;;27.30;36.10;;;;;;5053623;28;20441;-74
2023/05/28 11:21:31;;;;;;;9.87;4.10;;;27.30;37.00;;;;;;5053146;28;20465;-75
2023/05/28 11:24:02;;;;;;;12.03;5.10;;;27.40;36.20;;;;;;5052667;28;20864;-75
2023/05/28 11:26:30;;;;;;;7.37;3.33;;;27.50;37.60;;;;;;5053350;28;20473;-75
2023/05/28 11:28:57;;;;;;;6.10;3.30;;;27.60;36.40;;;;;;5052863;28;20483;-75
2023/05/28 11:31:24;;;;;;;9.67;4.50;;;27.60;36.00;;;;;;5052955;28;20475;-75
2023/05/28 11:33:52;;;;;;;7.33;3.70;;;27.70;35.80;;;;;;5052625;28;20467;-75
2023/05/28 11:36:21;;;;;;;7.77;3.50;;;27.70;37.00;;;;;;5051957;28;20516;-75
2023/05/28 11:39:01;;;;;;;7.03;3.33;;;27.70;34.60;;;;;;5053347;28;20490;-74
2023/05/28 11:41:30;;;;;;;9.87;5.13;;;27.80;34.50;;;;;;5053061;28;20429;-75
2023/05/28 11:43:57;;;;;;;7.17;3.57;;;27.80;33.80;;;;;;5053121;28;20464;-75
2023/05/28 11:46:24;;;;;;;6.20;3.13;;;27.80;34.70;;;;;;5064593;28;20437;-75
2023/05/28 11:48:51;;;;;;;8.87;4.53;;;27.80;33.00;;;;;;5071855;28;20436;-76
2023/05/28 11:51:21;;;;;;;6.53;3.00;;;28.00;34.10;;;;;;5062072;28;20421;-75
2023/05/28 11:53:48;;;;;;;4.20;2.90;;;28.00;32.90;;;;;;5052666;28;20831;-75
2023/05/28 11:56:15;;;;;;;5.00;3.00;;;27.90;32.20;;;;;;5053033;28;20983;-75
2023/05/28 11:58:48;;;;;;;6.03;3.50;;;27.90;32.50;;;;;;5052514;28;20468;-75
2023/05/28 12:01:16;;;;;;;8.00;3.93;;;27.90;32.60;;;;;;5052665;28;20460;-76
2023/05/28 12:03:44;;;;;;;6.27;3.70;;;27.90;31.90;;;;;;5052665;28;20839;-76
2023/05/28 12:06:13;;;;;;;6.37;3.63;;;27.90;30.50;;;;;;5052675;28;20464;-75
2023/05/28 12:08:42;;;;;;;10.43;3.23;;;27.80;31.80;;;;;;5052438;28;20460;-75
2023/05/28 12:11:10;;;;;;;4.87;2.93;;;27.80;33.40;;;;;;5052286;28;20527;-74
2023/05/28 12:13:39;;;;;;;6.97;3.30;;;27.70;30.60;;;;;;5052120;28;20449;-75
2023/05/28 12:16:09;;;;;;;8.10;3.40;;;27.50;30.50;;;;;;5051285;28;20576;-76
2023/05/28 12:18:40;;;;;;;7.53;4.27;;;27.40;30.50;;;;;;5051592;28;21416;-75
2023/05/28 12:21:11;;;;;;;7.80;4.20;;;27.30;32.20;;;;;;5051703;28;20430;-74
2023/05/28 12:23:41;;;;;;;7.90;3.47;;;27.30;30.80;;;;;;5052175;28;20446;-75
2023/05/28 12:26:14;;;;;;;6.97;3.37;;;27.20;31.40;;;;;;5052055;28;20436;-75
2023/05/28 12:28:46;;;;;;;11.87;4.67;;;27.20;31.80;;;;;;5052020;28;20473;-74
2023/05/28 12:31:14;;;;;;;7.80;3.90;;;27.20;33.00;;;;;;5052106;28;20429;-75
2023/05/28 12:33:41;;;;;;;6.17;3.10;;;27.20;35.60;;;;;;5051702;28;20924;-75
2023/05/28 12:36:08;;;;;;;5.67;4.13;;;27.20;32.80;;;;;;5051784;28;20477;-75
2023/05/28 12:38:35;;;;;;;8.03;3.80;;;27.20;33.90;;;;;;5051641;28;20854;-74
2023/05/28 12:41:04;;;;;;;10.07;3.60;;;27.20;33.80;;;;;;5051829;28;20535;-75
2023/05/28 12:43:32;;;;;;;6.93;3.50;;;27.20;32.40;;;;;;5052271;28;20808;-75
2023/05/28 12:45:59;;;;;;;6.53;3.73;;;27.20;31.60;;;;;;5064749;28;20458;-75
2023/05/28 12:48:27;;;;;;;6.80;3.00;;;27.20;31.90;;;;;;5076249;28;20443;-75